»·PEaware :: UAL612 KSFO-KPDX

UAL612 :: KSFO-KPDX

FLIGHT INFORMATION

Flight Status: Arrived
Operator:
United Airlines
More flights by this operator :: More flights under this callsign
Pilot: John C. (18682)
Aircraft: BOEING 737-800
(B738)
More flights by this aircraft type
Origin: KSFO San Francisco Intl
United States
Destination: KPDX Portland Intl
United States
More flights between these airports :: More routes between these airports
Route: TRUKN2 GRTFL MACHU TMBRS2
File this flight plan on PilotEdge
Remarks:
Altitude:
(Current/Filed)
36,000ft
Speed:
(Current/Filed)
452kts
Departed: 22-Sep-18 12:06 PM
Arrived: 22-Sep-18 01:25 PM
Distance/Time
Traveled:
478nm/1:19
Distance/Time
To Go:
Arrived

Flight Plot

Page will automatically refresh every two minutes.


Map Options




Map Legend


Flown Route
Filed Route
Departure Airport
Arrival Airport
Navaid (VOR, NDB)
Fix

Horizontal Profiles

Position Reports

Time Latitude Longitude Heading Altitude Ground
Speed
22-Sep-18 11:45 37.618041 -122.384055 281 31ft 0kts
22-Sep-18 11:46 37.618041 -122.384055 281 31ft 0kts
22-Sep-18 11:47 37.618041 -122.384055 281 31ft 0kts
22-Sep-18 11:48 37.618041 -122.384055 281 31ft 0kts
22-Sep-18 11:49 37.618041 -122.384055 281 31ft 0kts
22-Sep-18 11:50 37.618041 -122.384055 281 31ft 0kts
22-Sep-18 11:51 37.618041 -122.384055 281 31ft 0kts
22-Sep-18 11:52 37.618041 -122.384055 281 31ft 0kts
22-Sep-18 11:53 37.618041 -122.384055 281 31ft 0kts
22-Sep-18 11:54 37.618041 -122.384055 281 31ft 0kts
22-Sep-18 11:55 37.618041 -122.384055 281 31ft 0kts
22-Sep-18 11:56 37.618041 -122.384055 281 31ft 0kts
22-Sep-18 11:57 37.618041 -122.384055 281 30ft 0kts
22-Sep-18 11:58 37.618041 -122.384055 281 30ft 0kts
22-Sep-18 11:59 37.617995 -122.383758 281 31ft 2kts
22-Sep-18 12:00 37.617892 -122.383090 281 31ft 0kts
22-Sep-18 12:01 37.618288 -122.383372 29 31ft 0kts
22-Sep-18 12:02 37.618288 -122.383371 29 31ft 0kts
22-Sep-18 12:03 37.619025 -122.382864 29 31ft 5kts
22-Sep-18 12:04 37.619329 -122.382655 28 30ft 0kts
22-Sep-18 12:05 37.618043 -122.379601 161 30ft 21kts
22-Sep-18 12:06 37.612897 -122.382105 208 30ft 20kts
22-Sep-18 12:07 37.608696 -122.384373 119 30ft 11kts
22-Sep-18 12:08 37.610202 -122.381405 26 30ft 58kts
22-Sep-18 12:09 37.644478 -122.355491 47 1461ft 193kts
22-Sep-18 12:10 37.681022 -122.286568 58 3765ft 263kts
22-Sep-18 12:11 37.724089 -122.221179 21 6873ft 276kts
22-Sep-18 12:12 37.787182 -122.214936 357 9431ft 288kts
22-Sep-18 12:13 37.886420 -122.218124 358 12212ft 331kts
22-Sep-18 12:14 37.979692 -122.220817 357 14910ft 349kts
22-Sep-18 12:15 38.061118 -122.223100 357 17037ft 362kts
22-Sep-18 12:16 38.176234 -122.226284 356 19719ft 377kts
22-Sep-18 12:17 38.263958 -122.228698 356 21524ft 388kts
22-Sep-18 12:18 38.388679 -122.233883 352 23720ft 403kts
22-Sep-18 12:19 38.476461 -122.243442 351 25164ft 412kts
22-Sep-18 12:20 38.602174 -122.257191 351 27027ft 424kts
22-Sep-18 12:21 38.699959 -122.267831 351 28333ft 432kts
22-Sep-18 12:22 38.838904 -122.282902 351 30241ft 437kts
22-Sep-18 12:23 38.938892 -122.293716 350 31659ft 435kts
22-Sep-18 12:24 39.059297 -122.306760 348 33140ft 436kts
22-Sep-18 12:25 39.176919 -122.319547 348 34540ft 432kts
22-Sep-18 12:26 39.294975 -122.332389 348 35784ft 430kts
22-Sep-18 12:27 39.415271 -122.345614 348 36051ft 455kts
22-Sep-18 12:28 39.542726 -122.359495 349 36042ft 472kts
22-Sep-18 12:29 39.672662 -122.373526 349 36035ft 471kts
22-Sep-18 12:30 39.803324 -122.387685 349 36035ft 472kts
22-Sep-18 12:31 39.933553 -122.401820 349 36035ft 472kts
22-Sep-18 12:32 40.064120 -122.416005 349 36037ft 471kts
22-Sep-18 12:33 40.191679 -122.429870 349 36029ft 471kts
22-Sep-18 12:34 40.321592 -122.443997 349 36023ft 471kts
22-Sep-18 12:35 40.451291 -122.458102 349 36022ft 471kts
22-Sep-18 12:36 40.581070 -122.472220 349 36023ft 471kts
22-Sep-18 12:37 40.711074 -122.486366 349 36024ft 471kts
22-Sep-18 12:38 40.841089 -122.500516 349 36025ft 471kts
22-Sep-18 12:39 40.971640 -122.514729 349 36025ft 471kts
22-Sep-18 12:40 41.099925 -122.528696 348 36063ft 476kts
22-Sep-18 12:41 41.228321 -122.542690 348 36093ft 476kts
22-Sep-18 12:42 41.359296 -122.556973 348 36110ft 476kts
22-Sep-18 12:43 41.490816 -122.571323 348 36113ft 476kts
22-Sep-18 12:44 41.622867 -122.582070 350 36113ft 478kts
22-Sep-18 12:45 41.755246 -122.590722 350 36115ft 478kts
22-Sep-18 12:46 41.887565 -122.599390 350 36115ft 479kts
22-Sep-18 12:47 42.020316 -122.608120 350 36117ft 478kts
22-Sep-18 12:48 42.151283 -122.616771 350 36111ft 478kts
22-Sep-18 12:49 42.283217 -122.625557 350 36119ft 479kts
22-Sep-18 12:50 42.415386 -122.634399 350 36121ft 479kts
22-Sep-18 12:51 42.548179 -122.643318 350 36122ft 478kts
22-Sep-18 12:52 42.679364 -122.652153 349 36134ft 478kts
22-Sep-18 12:53 42.811612 -122.661011 349 36134ft 478kts
22-Sep-18 12:54 42.944276 -122.669954 349 36136ft 479kts
22-Sep-18 12:55 43.075409 -122.678860 349 36143ft 483kts
22-Sep-18 12:56 43.207406 -122.687852 349 36146ft 482kts
22-Sep-18 12:57 43.335340 -122.696616 349 36148ft 482kts
22-Sep-18 12:58 43.463866 -122.705243 348 36153ft 459kts
22-Sep-18 12:59 43.590100 -122.713924 349 36147ft 458kts
22-Sep-18 13:00 43.717484 -122.722770 348 34198ft 467kts
22-Sep-18 13:01 43.844220 -122.731494 349 30928ft 461kts
22-Sep-18 13:02 43.968263 -122.740014 349 27951ft 441kts
22-Sep-18 13:03 44.086374 -122.748117 349 25467ft 415kts
22-Sep-18 13:04 44.195923 -122.749298 356 23463ft 414kts
22-Sep-18 13:05 44.307530 -122.738121 357 21782ft 398kts
22-Sep-18 13:06 44.407088 -122.728174 357 20276ft 390kts
22-Sep-18 13:07 44.512665 -122.717557 357 18594ft 376kts
22-Sep-18 13:08 44.613247 -122.707414 357 17096ft 365kts
22-Sep-18 13:09 44.710871 -122.697545 357 15633ft 357kts
22-Sep-18 13:10 44.807542 -122.687722 357 14196ft 348kts
22-Sep-18 13:11 44.898845 -122.678433 357 12816ft 333kts
22-Sep-18 13:12 44.985819 -122.669451 357 11535ft 306kts
22-Sep-18 13:13 45.068872 -122.661053 358 10305ft 289kts
22-Sep-18 13:14 45.140082 -122.653687 359 9235ft 256kts
22-Sep-18 13:15 45.204729 -122.647078 359 8271ft 222kts
22-Sep-18 13:16 45.263668 -122.632222 30 7378ft 233kts
22-Sep-18 13:17 45.313777 -122.586732 30 6474ft 212kts
22-Sep-18 13:18 45.361909 -122.543024 31 5629ft 218kts
22-Sep-18 13:19 45.405368 -122.483959 54 4817ft 217kts
22-Sep-18 13:20 45.439222 -122.417445 54 3924ft 204kts
22-Sep-18 13:21 45.472356 -122.353578 44 3035ft 200kts
22-Sep-18 13:22 45.510457 -122.376831 293 2996ft 169kts
22-Sep-18 13:23 45.531622 -122.433514 295 2182ft 165kts
22-Sep-18 13:24 45.552406 -122.486764 295 1369ft 147kts
22-Sep-18 13:25 45.571638 -122.535798 296 556ft 146kts
22-Sep-18 13:26 45.589473 -122.582163 299 37ft 81kts
22-Sep-18 13:27 45.592101 -122.592122 269 37ft 11kts
22-Sep-18 13:28 45.591801 -122.595107 196 37ft 5kts
22-Sep-18 13:29 45.591585 -122.595193 196 37ft 0kts
22-Sep-18 13:30 45.591585 -122.595193 196 37ft 0kts
22-Sep-18 13:31 45.591585 -122.595193 196 37ft 0kts
22-Sep-18 13:32 45.591585 -122.595193 196 37ft 0kts

Navigation Log

Ident Type
1. KSFO Airport
2. KPDX Airport